Covington, Iowa
Current Conditions -  °F | °C
As of 12:52 PM on Tuesday 27 Jan 2015 (Local Time) from KCID Reporting Station
Overcast Overcast  
Wind Chill: 32°   Ceiling: 1700
Heat Index: 32°   Visibility: 10mi
Dew Point: 26°   Wind: 3mph
Humidity: 79%   Direction: 80°E
Pressure: 30.17"   Gusts: NA
Location:  42.0483°N, 91.7982°W
Report Text: KCID 271852Z 08003KT 10SM OVC017 00/M03 A3017 RMK AO2 SLP225 T00001033
Loading
Personal Weather Stations






























Interactive Weather Map New forecast layout! Learn more

10-Day Weather Forecast

Advertisements
Track Severe Weather on mobile